Norwegian Epic — C6XP7 — position and weather

sailwx.info

Track history (hours):
 
Tides and Currents Weather Stations Pressure Air Temp Water Temp Dewpoint Dewpoint Depression Visibility Wind Speed Wind Dir Waves Ship Positions

Norwegian Epic

Last reported at 2017-Nov-12 07:08 UTC. Time now 2017-Nov-19 03:11 UTC.
Position N 36°60' W 029°45'.

Length 329 m; draft 9 m.

MMSI: 311018500.

Date/timePositionNaut miles runAvg speedWind from/ knotsBaromVisibWave heightAir tempDewpointWater temp
2017-Nov-12 07:08N 36°60' W 029°45'216.7
2017-Nov-12 07:00N 37°00' W 029°42'817.0
2017-Nov-12 06:30N 37°03' W 029°32'917.1
2017-Nov-12 06:00N 37°06' W 029°22'917.3
2017-Nov-12 05:30N 37°10' W 029°13'917.6
2017-Nov-12 05:00N 37°14' W 029°03'917.3
2017-Nov-12 04:31N 37°18' W 028°53'917.3
2017-Nov-12 04:00N 37°22' W 028°43'815.3
2017-Nov-12 03:31N 37°23' W 028°34'816.5
2017-Nov-12 03:00N 37°15' W 028°31'714.9
2017-Nov-12 02:30N 37°14' W 028°22'917.6
2017-Nov-12 02:00N 37°16' W 028°11'917.4
2017-Nov-12 01:30N 37°18' W 028°00'917.3
2017-Nov-12 01:00N 37°19' W 027°50'917.3
2017-Nov-12 00:30N 37°21' W 027°39'917.1
2017-Nov-12 00:00N 37°23' W 027°29'917.1
2017-Nov-11 23:31N 37°25' W 027°18'917.0
2017-Nov-11 23:01N 37°27' W 027°08'917.1
2017-Nov-11 22:31N 37°29' W 026°57'816.6
2017-Nov-11 22:00N 37°30' W 026°47'816.4
2017-Nov-11 21:30N 37°32' W 026°37'816.4
2017-Nov-11 21:01N 37°34' W 026°27'816.7
2017-Nov-11 20:31N 37°35' W 026°16'816.7
2017-Nov-11 20:01N 37°37' W 026°06'816.4
2017-Nov-11 19:31N 37°39' W 025°56'816.4
2017-Nov-11 19:00N 37°41' W 025°46'612.6
2017-Nov-11 18:30N 37°44' W 025°39'1 1.4
2017-Nov-11 17:58N 37°44' W 025°40'0 0.0
2017-Nov-11 17:28N 37°44' W 025°40'0 0.0
2017-Nov-11 16:59N 37°44' W 025°40'0 0.0
2017-Nov-11 16:29N 37°44' W 025°40'0 0.0
2017-Nov-11 15:59N 37°44' W 025°40'0 0.0
2017-Nov-11 15:30N 37°44' W 025°40'0 0.1
2017-Nov-11 15:00N 37°44' W 025°40'0 0.1
2017-Nov-11 14:30N 37°44' W 025°40'0 0.0
2017-Nov-11 14:00N 37°44' W 025°40'0 0.0
2017-Nov-11 13:28N 37°44' W 025°40'0 0.0
2017-Nov-11 12:58N 37°44' W 025°40'0 0.0
2017-Nov-11 12:29N 37°44' W 025°40'0 0.0
2017-Nov-11 11:59N 37°44' W 025°40'0 0.0
2017-Nov-11 11:29N 37°44' W 025°40'0 0.0
2017-Nov-11 10:59N 37°44' W 025°40'0 0.1
2017-Nov-11 10:30N 37°44' W 025°40'0 0.1
2017-Nov-11 10:00N 37°44' W 025°40'0 0.0
2017-Nov-11 09:30N 37°44' W 025°40'0 0.0
2017-Nov-11 08:58N 37°44' W 025°40'0 0.0
2017-Nov-11 08:30N 37°44' W 025°40'0 0.0
2017-Nov-11 08:00N 37°44' W 025°40'0 0.1
2017-Nov-11 07:30N 37°44' W 025°40'1 2.5
2017-Nov-11 07:01N 37°43' W 025°39'5 9.5
2017-Nov-11 06:30N 37°41' W 025°33'5 9.2
2017-Nov-11 06:00N 37°41' W 025°27'510.5
2017-Nov-11 05:30N 37°40' W 025°21'612.2
2017-Nov-11 05:00N 37°39' W 025°13'611.8
2017-Nov-11 04:30N 37°38' W 025°06'611.8
2017-Nov-11 04:00N 37°38' W 024°58'612.1
2017-Nov-11 03:30N 37°37' W 024°51'611.7
2017-Nov-11 03:00N 37°36' W 024°44'611.4
2017-Nov-11 02:30N 37°35' W 024°36'611.8
2017-Nov-11 02:01N 37°34' W 024°29'612.3
2017-Nov-11 01:30N 37°32' W 024°22'612.2
2017-Nov-11 01:00N 37°30' W 024°14'612.0
2017-Nov-11 00:30N 37°28' W 024°07'612.0
2017-Nov-11 00:00N 37°26' W 023°60'612.2
2017-Nov-10 23:31N 37°24' W 023°53'612.1
2017-Nov-10 23:00N 37°23' W 023°45'510.0
2017-Nov-10 22:30N 37°27' W 023°46'5 9.2
2017-Nov-10 22:00N 37°31' W 023°43'612.0
2017-Nov-10 21:30N 37°31' W 023°35'612.4
2017-Nov-10 21:00N 37°30' W 023°28'610.7
2017-Nov-10 20:24N 37°29' W 023°20'910.7
2017-Nov-10 19:34N 37°28' W 023°08'  
2017-Nov-08 05:26N 36°09' W 007°16'612.9
2017-Nov-08 04:59N 36°09' W 007°09'136 6.3
2017-Nov-07 07:22N 36°42' W 004°25'2 0.9
2017-Nov-07 04:52N 36°40' W 004°24'2412.2
2017-Nov-07 02:54N 36°35' W 003°55'512.2
2017-Nov-07 02:28N 36°34' W 003°49'612.0
2017-Nov-07 02:00N 36°33' W 003°42'36612.3
2017-Nov-05 20:20N 40°49' E 001°53'513.4
2017-Nov-05 19:57N 40°54' E 001°56'612.9
2017-Nov-05 19:30N 40°59' E 001°59'612.7
2017-Nov-05 19:00N 41°05' E 002°03'612.3
2017-Nov-05 18:30N 41°10' E 002°06'612.0
2017-Nov-05 17:59N 41°16' E 002°10'3 0.2
2017-Nov-05 03:03N 41°19' E 002°10'1 8.6
2017-Nov-05 02:59N 41°18' E 002°11'713.9
2017-Nov-05 02:30N 41°12' E 002°11'10217.0
2017-Nov-04 20:28N 39°29' E 002°20'816.0
2017-Nov-04 20:00N 39°25' E 002°28'714.8
2017-Nov-04 19:30N 39°28' E 002°36'510.1
2017-Nov-04 19:00N 39°33' E 002°38'0 0.6
2017-Nov-04 18:30N 39°33' E 002°38'0 0.0
2017-Nov-04 18:00N 39°33' E 002°38'0 0.0
2017-Nov-04 17:30N 39°33' E 002°38'0 0.0
2017-Nov-04 16:58N 39°33' E 002°38'0 0.0
2017-Nov-04 16:28N 39°33' E 002°38'0 0.0
2017-Nov-04 15:58N 39°33' E 002°38'0 0.0
2017-Nov-04 15:30N 39°33' E 002°38'0 0.0
2017-Nov-04 15:00N 39°33' E 002°38'0 0.0
2017-Nov-04 14:30N 39°33' E 002°38'0 0.0
2017-Nov-04 14:00N 39°33' E 002°38'0 0.0
2017-Nov-04 13:30N 39°33' E 002°38'0 0.0
2017-Nov-04 13:00N 39°33' E 002°38'0 0.0
2017-Nov-04 12:30N 39°33' E 002°38'0 0.0
2017-Nov-04 12:01N 39°33' E 002°38'0 0.0
2017-Nov-04 11:30N 39°33' E 002°38'1 2.4
2017-Nov-04 11:00N 39°33' E 002°39'612.0
2017-Nov-04 10:30N 39°28' E 002°35'814.9
2017-Nov-04 10:00N 39°26' E 002°26'3814.1
2017-Nov-04 07:19N 40°01' E 002°44'620.0
2017-Nov-04 07:00N 40°05' E 002°50'1019.9
2017-Nov-04 06:30N 40°12' E 002°59'26320.6
2017-Nov-03 17:45N 43°25' E 006°58'518.7
2017-Nov-03 17:30N 43°30' E 006°60'3 5.1
2017-Nov-03 17:00N 43°32' E 007°01'0 0.2
2017-Nov-03 16:23N 43°32' E 007°01'0 0.0
2017-Nov-03 16:00N 43°32' E 007°01'0 0.1
2017-Nov-03 15:30N 43°32' E 007°01'0 0.0
2017-Nov-03 14:57N 43°32' E 007°01'0 0.2
2017-Nov-03 14:30N 43°32' E 007°01'0 0.3
2017-Nov-03 14:00N 43°32' E 007°01'0 0.2
2017-Nov-03 13:28N 43°32' E 007°01'0 0.1
2017-Nov-03 13:00N 43°32' E 007°01'0 0.1
2017-Nov-03 12:30N 43°32' E 007°01'0 0.0
2017-Nov-03 12:00N 43°32' E 007°01'0 0.1
2017-Nov-03 11:30N 43°32' E 007°01'0 0.1
2017-Nov-03 11:00N 43°32' E 007°01'0 0.0
2017-Nov-03 10:27N 43°32' E 007°01'0 0.1
2017-Nov-03 09:58N 43°32' E 007°01'0 0.2
2017-Nov-03 09:29N 43°32' E 007°01'0 0.1
2017-Nov-03 08:59N 43°32' E 007°01'0 0.1
2017-Nov-03 08:30N 43°32' E 007°01'0 1.0
2017-Nov-03 08:00N 43°32' E 007°01'0 1.0
2017-Nov-03 07:30N 43°32' E 007°01'0 0.0
2017-Nov-03 07:00N 43°32' E 007°01'0 0.1
2017-Nov-03 06:30N 43°32' E 007°01'0 0.2
2017-Nov-03 06:00N 43°32' E 007°01'0 0.2
2017-Nov-03 05:30N 43°32' E 007°01'4 7.6
2017-Nov-03 05:00N 43°28' E 007°03'611.5
2017-Nov-03 04:30N 43°28' E 007°11'611.8
2017-Nov-03 04:00N 43°28' E 007°19'812.6
2017-Nov-03 03:24N 43°28' E 007°29'3414.4
2017-Nov-03 01:01N 43°29' E 008°17'215.2
2017-Nov-03 00:51N 43°30' E 008°20'515.2
2017-Nov-03 00:30N 43°30' E 008°27'815.0
2017-Nov-03 00:00N 43°30' E 008°38'714.9
2017-Nov-02 23:30N 43°30' E 008°48'714.7
2017-Nov-02 23:00N 43°30' E 008°58'714.6
2017-Nov-02 22:30N 43°31' E 009°08'714.4
2017-Nov-02 22:00N 43°31' E 009°18'714.4
2017-Nov-02 21:30N 43°31' E 009°28'714.7
2017-Nov-02 21:00N 43°31' E 009°38'815.3
2017-Nov-02 20:30N 43°31' E 009°49'815.6
2017-Nov-02 20:00N 43°31' E 009°59'815.3
2017-Nov-02 19:30N 43°31' E 010°10'611.0
2017-Nov-02 19:00N 43°32' E 010°17'1 1.6
2017-Nov-02 18:29N 43°33' E 010°18'0 0.0
2017-Nov-02 18:00N 43°33' E 010°18'0 0.0
2017-Nov-02 17:30N 43°33' E 010°18'0 0.0
2017-Nov-02 16:58N 43°33' E 010°18'0 0.0
2017-Nov-02 16:30N 43°33' E 010°18'0 0.0
2017-Nov-02 16:01N 43°33' E 010°18'0 0.0
2017-Nov-02 15:30N 43°33' E 010°18'0 0.0
2017-Nov-02 15:01N 43°33' E 010°18'0 0.0
2017-Nov-02 14:31N 43°33' E 010°18'0 0.0
2017-Nov-02 14:00N 43°33' E 010°18'0 0.0
2017-Nov-02 13:31N 43°33' E 010°18'0 0.0
2017-Nov-02 13:00N 43°33' E 010°18'0 0.0
2017-Nov-02 12:31N 43°33' E 010°18'0 0.0
2017-Nov-02 12:00N 43°33' E 010°18'0 0.0
2017-Nov-02 11:31N 43°33' E 010°18'0 0.0
2017-Nov-02 11:01N 43°33' E 010°18'0 0.0
2017-Nov-02 10:31N 43°33' E 010°18'0 0.0
2017-Nov-02 10:00N 43°33' E 010°18'0 0.0
2017-Nov-02 09:31N 43°33' E 010°18'0 0.0
2017-Nov-02 09:01N 43°33' E 010°18'0 0.0
2017-Nov-02 08:31N 43°33' E 010°18'0 0.0
2017-Nov-02 08:00N 43°33' E 010°18'0 0.0
2017-Nov-02 07:31N 43°33' E 010°18'  
Track history (hours):
 
Tides and Currents Weather Stations Pressure Air Temp Water Temp Dewpoint Dewpoint Depression Visibility Wind Speed Wind Dir Waves Ship Positions

Norwegian Epic

Last reported at 2017-Nov-12 07:08 UTC. Time now 2017-Nov-19 03:11 UTC.
Position N 36°60' W 029°45'.

Length 329 m; draft 9 m.

MMSI: 311018500.

Date/timePositionNaut miles runAvg speedWind from/ knotsBaromVisibWave heightAir tempDewpointWater temp
2017-Nov-12 07:08N 36°60' W 029°45'216.7
2017-Nov-12 07:00N 37°00' W 029°42'817.0
2017-Nov-12 06:30N 37°03' W 029°32'917.1
2017-Nov-12 06:00N 37°06' W 029°22'917.3
2017-Nov-12 05:30N 37°10' W 029°13'917.6
2017-Nov-12 05:00N 37°14' W 029°03'917.3
2017-Nov-12 04:31N 37°18' W 028°53'917.3
2017-Nov-12 04:00N 37°22' W 028°43'815.3
2017-Nov-12 03:31N 37°23' W 028°34'816.5
2017-Nov-12 03:00N 37°15' W 028°31'714.9
2017-Nov-12 02:30N 37°14' W 028°22'917.6
2017-Nov-12 02:00N 37°16' W 028°11'917.4
2017-Nov-12 01:30N 37°18' W 028°00'917.3
2017-Nov-12 01:00N 37°19' W 027°50'917.3
2017-Nov-12 00:30N 37°21' W 027°39'917.1
2017-Nov-12 00:00N 37°23' W 027°29'917.1
2017-Nov-11 23:31N 37°25' W 027°18'917.0
2017-Nov-11 23:01N 37°27' W 027°08'917.1
2017-Nov-11 22:31N 37°29' W 026°57'816.6
2017-Nov-11 22:00N 37°30' W 026°47'816.4
2017-Nov-11 21:30N 37°32' W 026°37'816.4
2017-Nov-11 21:01N 37°34' W 026°27'816.7
2017-Nov-11 20:31N 37°35' W 026°16'816.7
2017-Nov-11 20:01N 37°37' W 026°06'816.4
2017-Nov-11 19:31N 37°39' W 025°56'816.4
2017-Nov-11 19:00N 37°41' W 025°46'612.6
2017-Nov-11 18:30N 37°44' W 025°39'1 1.4
2017-Nov-11 17:58N 37°44' W 025°40'0 0.0
2017-Nov-11 17:28N 37°44' W 025°40'0 0.0
2017-Nov-11 16:59N 37°44' W 025°40'0 0.0
2017-Nov-11 16:29N 37°44' W 025°40'0 0.0
2017-Nov-11 15:59N 37°44' W 025°40'0 0.0
2017-Nov-11 15:30N 37°44' W 025°40'0 0.1
2017-Nov-11 15:00N 37°44' W 025°40'0 0.1
2017-Nov-11 14:30N 37°44' W 025°40'0 0.0
2017-Nov-11 14:00N 37°44' W 025°40'0 0.0
2017-Nov-11 13:28N 37°44' W 025°40'0 0.0
2017-Nov-11 12:58N 37°44' W 025°40'0 0.0
2017-Nov-11 12:29N 37°44' W 025°40'0 0.0
2017-Nov-11 11:59N 37°44' W 025°40'0 0.0
2017-Nov-11 11:29N 37°44' W 025°40'0 0.0
2017-Nov-11 10:59N 37°44' W 025°40'0 0.1
2017-Nov-11 10:30N 37°44' W 025°40'0 0.1
2017-Nov-11 10:00N 37°44' W 025°40'0 0.0
2017-Nov-11 09:30N 37°44' W 025°40'0 0.0
2017-Nov-11 08:58N 37°44' W 025°40'0 0.0
2017-Nov-11 08:30N 37°44' W 025°40'0 0.0
2017-Nov-11 08:00N 37°44' W 025°40'0 0.1
2017-Nov-11 07:30N 37°44' W 025°40'1 2.5
2017-Nov-11 07:01N 37°43' W 025°39'5 9.5
2017-Nov-11 06:30N 37°41' W 025°33'5 9.2
2017-Nov-11 06:00N 37°41' W 025°27'510.5
2017-Nov-11 05:30N 37°40' W 025°21'612.2
2017-Nov-11 05:00N 37°39' W 025°13'611.8
2017-Nov-11 04:30N 37°38' W 025°06'611.8
2017-Nov-11 04:00N 37°38' W 024°58'612.1
2017-Nov-11 03:30N 37°37' W 024°51'611.7
2017-Nov-11 03:00N 37°36' W 024°44'611.4
2017-Nov-11 02:30N 37°35' W 024°36'611.8
2017-Nov-11 02:01N 37°34' W 024°29'612.3
2017-Nov-11 01:30N 37°32' W 024°22'612.2
2017-Nov-11 01:00N 37°30' W 024°14'612.0
2017-Nov-11 00:30N 37°28' W 024°07'612.0
2017-Nov-11 00:00N 37°26' W 023°60'612.2
2017-Nov-10 23:31N 37°24' W 023°53'612.1
2017-Nov-10 23:00N 37°23' W 023°45'510.0
2017-Nov-10 22:30N 37°27' W 023°46'5 9.2
2017-Nov-10 22:00N 37°31' W 023°43'612.0
2017-Nov-10 21:30N 37°31' W 023°35'612.4
2017-Nov-10 21:00N 37°30' W 023°28'610.7
2017-Nov-10 20:24N 37°29' W 023°20'910.7
2017-Nov-10 19:34N 37°28' W 023°08'  
2017-Nov-08 05:26N 36°09' W 007°16'612.9
2017-Nov-08 04:59N 36°09' W 007°09'136 6.3
2017-Nov-07 07:22N 36°42' W 004°25'2 0.9
2017-Nov-07 04:52N 36°40' W 004°24'2412.2
2017-Nov-07 02:54N 36°35' W 003°55'512.2
2017-Nov-07 02:28N 36°34' W 003°49'612.0
2017-Nov-07 02:00N 36°33' W 003°42'36612.3
2017-Nov-05 20:20N 40°49' E 001°53'513.4
2017-Nov-05 19:57N 40°54' E 001°56'612.9
2017-Nov-05 19:30N 40°59' E 001°59'612.7
2017-Nov-05 19:00N 41°05' E 002°03'612.3
2017-Nov-05 18:30N 41°10' E 002°06'612.0
2017-Nov-05 17:59N 41°16' E 002°10'3 0.2
2017-Nov-05 03:03N 41°19' E 002°10'1 8.6
2017-Nov-05 02:59N 41°18' E 002°11'713.9
2017-Nov-05 02:30N 41°12' E 002°11'10217.0
2017-Nov-04 20:28N 39°29' E 002°20'816.0
2017-Nov-04 20:00N 39°25' E 002°28'714.8
2017-Nov-04 19:30N 39°28' E 002°36'510.1
2017-Nov-04 19:00N 39°33' E 002°38'0 0.6
2017-Nov-04 18:30N 39°33' E 002°38'0 0.0
2017-Nov-04 18:00N 39°33' E 002°38'0 0.0
2017-Nov-04 17:30N 39°33' E 002°38'0 0.0
2017-Nov-04 16:58N 39°33' E 002°38'0 0.0
2017-Nov-04 16:28N 39°33' E 002°38'0 0.0
2017-Nov-04 15:58N 39°33' E 002°38'0 0.0
2017-Nov-04 15:30N 39°33' E 002°38'0 0.0
2017-Nov-04 15:00N 39°33' E 002°38'0 0.0
2017-Nov-04 14:30N 39°33' E 002°38'0 0.0
2017-Nov-04 14:00N 39°33' E 002°38'0 0.0
2017-Nov-04 13:30N 39°33' E 002°38'0 0.0
2017-Nov-04 13:00N 39°33' E 002°38'0 0.0
2017-Nov-04 12:30N 39°33' E 002°38'0 0.0
2017-Nov-04 12:01N 39°33' E 002°38'0 0.0
2017-Nov-04 11:30N 39°33' E 002°38'1 2.4
2017-Nov-04 11:00N 39°33' E 002°39'612.0
2017-Nov-04 10:30N 39°28' E 002°35'814.9
2017-Nov-04 10:00N 39°26' E 002°26'3814.1
2017-Nov-04 07:19N 40°01' E 002°44'620.0
2017-Nov-04 07:00N 40°05' E 002°50'1019.9
2017-Nov-04 06:30N 40°12' E 002°59'26320.6
2017-Nov-03 17:45N 43°25' E 006°58'518.7
2017-Nov-03 17:30N 43°30' E 006°60'3 5.1
2017-Nov-03 17:00N 43°32' E 007°01'0 0.2
2017-Nov-03 16:23N 43°32' E 007°01'0 0.0
2017-Nov-03 16:00N 43°32' E 007°01'0 0.1
2017-Nov-03 15:30N 43°32' E 007°01'0 0.0
2017-Nov-03 14:57N 43°32' E 007°01'0 0.2
2017-Nov-03 14:30N 43°32' E 007°01'0 0.3
2017-Nov-03 14:00N 43°32' E 007°01'0 0.2
2017-Nov-03 13:28N 43°32' E 007°01'0 0.1
2017-Nov-03 13:00N 43°32' E 007°01'0 0.1
2017-Nov-03 12:30N 43°32' E 007°01'0 0.0
2017-Nov-03 12:00N 43°32' E 007°01'0 0.1
2017-Nov-03 11:30N 43°32' E 007°01'0 0.1
2017-Nov-03 11:00N 43°32' E 007°01'0 0.0
2017-Nov-03 10:27N 43°32' E 007°01'0 0.1
2017-Nov-03 09:58N 43°32' E 007°01'0 0.2
2017-Nov-03 09:29N 43°32' E 007°01'0 0.1
2017-Nov-03 08:59N 43°32' E 007°01'0 0.1
2017-Nov-03 08:30N 43°32' E 007°01'0 1.0
2017-Nov-03 08:00N 43°32' E 007°01'0 1.0
2017-Nov-03 07:30N 43°32' E 007°01'0 0.0
2017-Nov-03 07:00N 43°32' E 007°01'0 0.1
2017-Nov-03 06:30N 43°32' E 007°01'0 0.2
2017-Nov-03 06:00N 43°32' E 007°01'0 0.2
2017-Nov-03 05:30N 43°32' E 007°01'4 7.6
2017-Nov-03 05:00N 43°28' E 007°03'611.5
2017-Nov-03 04:30N 43°28' E 007°11'611.8
2017-Nov-03 04:00N 43°28' E 007°19'812.6
2017-Nov-03 03:24N 43°28' E 007°29'3414.4
2017-Nov-03 01:01N 43°29' E 008°17'215.2
2017-Nov-03 00:51N 43°30' E 008°20'515.2
2017-Nov-03 00:30N 43°30' E 008°27'815.0
2017-Nov-03 00:00N 43°30' E 008°38'714.9
2017-Nov-02 23:30N 43°30' E 008°48'714.7
2017-Nov-02 23:00N 43°30' E 008°58'714.6
2017-Nov-02 22:30N 43°31' E 009°08'714.4
2017-Nov-02 22:00N 43°31' E 009°18'714.4
2017-Nov-02 21:30N 43°31' E 009°28'714.7
2017-Nov-02 21:00N 43°31' E 009°38'815.3
2017-Nov-02 20:30N 43°31' E 009°49'815.6
2017-Nov-02 20:00N 43°31' E 009°59'815.3
2017-Nov-02 19:30N 43°31' E 010°10'611.0
2017-Nov-02 19:00N 43°32' E 010°17'1 1.6
2017-Nov-02 18:29N 43°33' E 010°18'0 0.0
2017-Nov-02 18:00N 43°33' E 010°18'0 0.0
2017-Nov-02 17:30N 43°33' E 010°18'0 0.0
2017-Nov-02 16:58N 43°33' E 010°18'0 0.0
2017-Nov-02 16:30N 43°33' E 010°18'0 0.0
2017-Nov-02 16:01N 43°33' E 010°18'0 0.0
2017-Nov-02 15:30N 43°33' E 010°18'0 0.0
2017-Nov-02 15:01N 43°33' E 010°18'0 0.0
2017-Nov-02 14:31N 43°33' E 010°18'0 0.0
2017-Nov-02 14:00N 43°33' E 010°18'0 0.0
2017-Nov-02 13:31N 43°33' E 010°18'0 0.0
2017-Nov-02 13:00N 43°33' E 010°18'0 0.0
2017-Nov-02 12:31N 43°33' E 010°18'0 0.0
2017-Nov-02 12:00N 43°33' E 010°18'0 0.0
2017-Nov-02 11:31N 43°33' E 010°18'0 0.0
2017-Nov-02 11:01N 43°33' E 010°18'0 0.0
2017-Nov-02 10:31N 43°33' E 010°18'0 0.0
2017-Nov-02 10:00N 43°33' E 010°18'0 0.0
2017-Nov-02 09:31N 43°33' E 010°18'0 0.0
2017-Nov-02 09:01N 43°33' E 010°18'0 0.0
2017-Nov-02 08:31N 43°33' E 010°18'0 0.0
2017-Nov-02 08:00N 43°33' E 010°18'0 0.0
2017-Nov-02 07:31N 43°33' E 010°18'  

Dump ship's entire track history